sensor_id;sensor_type;location;lat;lon;timestamp;P1;durP1;ratioP1;P2;durP2;ratioP2
2313;SDS011;42279;51.388;7.000;2022-09-14T02:44:30;7.43;;;3.00;;
2313;SDS011;42279;51.388;7.000;2022-09-14T02:47:06;7.07;;;3.07;;
2313;SDS011;42279;51.388;7.000;2022-09-14T02:52:30;3.30;;;2.07;;
2313;SDS011;42279;51.388;7.000;2022-09-14T02:55:12;2.90;;;2.70;;
2313;SDS011;42279;51.388;7.000;2022-09-14T03:04:13;6.50;;;2.70;;
2313;SDS011;42279;51.388;7.000;2022-09-14T03:06:52;4.83;;;2.20;;
2313;SDS011;42279;51.388;7.000;2022-09-14T03:09:27;6.83;;;3.10;;
2313;SDS011;42279;51.388;7.000;2022-09-14T03:17:51;4.17;;;2.87;;
2313;SDS011;42279;51.388;7.000;2022-09-14T03:20:19;3.37;;;3.17;;
2313;SDS011;42279;51.388;7.000;2022-09-14T03:25:51;2.67;;;2.33;;
2313;SDS011;42279;51.388;7.000;2022-09-14T03:37:26;6.83;;;3.23;;
2313;SDS011;42279;51.388;7.000;2022-09-14T03:40:18;3.63;;;3.33;;
2313;SDS011;42279;51.388;7.000;2022-09-14T03:42:45;4.20;;;3.40;;
2313;SDS011;42279;51.388;7.000;2022-09-14T03:48:29;3.27;;;3.07;;
2313;SDS011;42279;51.388;7.000;2022-09-14T03:51:02;3.97;;;3.33;;
2313;SDS011;42279;51.388;7.000;2022-09-14T03:53:37;4.73;;;3.17;;
2313;SDS011;42279;51.388;7.000;2022-09-14T03:59:02;6.27;;;2.80;;
2313;SDS011;42279;51.388;7.000;2022-09-14T04:01:28;3.00;;;2.80;;
2313;SDS011;42279;51.388;7.000;2022-09-14T04:09:45;5.33;;;3.03;;
2313;SDS011;42279;51.388;7.000;2022-09-14T04:12:32;6.90;;;3.17;;
2313;SDS011;42279;51.388;7.000;2022-09-14T04:15:07;10.40;;;3.20;;
2313;SDS011;42279;51.388;7.000;2022-09-14T04:17:38;4.90;;;3.77;;
2313;SDS011;42279;51.388;7.000;2022-09-14T04:20:06;4.20;;;3.23;;
2313;SDS011;42279;51.388;7.000;2022-09-14T04:23:08;4.87;;;3.43;;
2313;SDS011;42279;51.388;7.000;2022-09-14T04:25:39;3.87;;;3.27;;
2313;SDS011;42279;51.388;7.000;2022-09-14T04:28:17;5.93;;;3.43;;
2313;SDS011;42279;51.388;7.000;2022-09-14T04:31:00;2.90;;;2.70;;
2313;SDS011;42279;51.388;7.000;2022-09-14T04:33:33;6.10;;;3.80;;
2313;SDS011;42279;51.388;7.000;2022-09-14T04:39:10;5.43;;;3.10;;
2313;SDS011;42279;51.388;7.000;2022-09-14T04:41:53;6.17;;;2.93;;
2313;SDS011;42279;51.388;7.000;2022-09-14T05:22:42;5.10;;;3.77;;
2313;SDS011;42279;51.388;7.000;2022-09-14T05:25:30;7.07;;;3.77;;
2313;SDS011;42279;51.388;7.000;2022-09-14T05:28:20;4.17;;;3.53;;
2313;SDS011;42279;51.388;7.000;2022-09-14T05:30:47;8.10;;;4.37;;
2313;SDS011;42279;51.388;7.000;2022-09-14T05:33:13;6.03;;;3.97;;
2313;SDS011;42279;51.388;7.000;2022-09-14T05:36:07;4.20;;;3.80;;
2313;SDS011;42279;51.388;7.000;2022-09-14T05:38:38;7.57;;;4.47;;
2313;SDS011;42279;51.388;7.000;2022-09-14T05:41:05;8.03;;;4.27;;
2313;SDS011;42279;51.388;7.000;2022-09-14T05:43:34;8.67;;;4.50;;
2313;SDS011;42279;51.388;7.000;2022-09-14T05:46:05;6.80;;;4.60;;
2313;SDS011;42279;51.388;7.000;2022-09-14T05:48:34;6.70;;;6.10;;
2313;SDS011;42279;51.388;7.000;2022-09-14T05:56:37;5.10;;;4.67;;
2313;SDS011;42279;51.388;7.000;2022-09-14T05:59:03;6.83;;;6.13;;
2313;SDS011;42279;51.388;7.000;2022-09-14T06:01:35;7.10;;;5.20;;
2313;SDS011;42279;51.388;7.000;2022-09-14T06:04:18;6.50;;;5.53;;
2313;SDS011;42279;51.388;7.000;2022-09-14T06:06:57;4.30;;;4.03;;
2313;SDS011;42279;51.388;7.000;2022-09-14T06:09:29;8.20;;;5.67;;
2313;SDS011;42279;51.388;7.000;2022-09-14T06:17:56;11.63;;;6.10;;
2313;SDS011;42279;51.388;7.000;2022-09-14T06:20:29;8.13;;;5.87;;
2313;SDS011;42279;51.388;7.000;2022-09-14T06:23:01;5.90;;;5.17;;
2313;SDS011;42279;51.388;7.000;2022-09-14T06:31:10;11.00;;;7.60;;
2313;SDS011;42279;51.388;7.000;2022-09-14T06:33:50;6.33;;;5.83;;
2313;SDS011;42279;51.388;7.000;2022-09-14T06:36:31;8.80;;;6.57;;
2313;SDS011;42279;51.388;7.000;2022-09-14T06:39:01;11.70;;;8.40;;
2313;SDS011;42279;51.388;7.000;2022-09-14T06:41:29;8.60;;;7.60;;
2313;SDS011;42279;51.388;7.000;2022-09-14T06:44:01;6.77;;;6.27;;
2313;SDS011;42279;51.388;7.000;2022-09-14T07:03:22;10.97;;;7.10;;
2313;SDS011;42279;51.388;7.000;2022-09-14T07:08:26;6.27;;;5.60;;
2313;SDS011;42279;51.388;7.000;2022-09-14T07:10:56;10.03;;;6.17;;
2313;SDS011;42279;51.388;7.000;2022-09-14T07:13:23;7.07;;;6.40;;
2313;SDS011;42279;51.388;7.000;2022-09-14T07:15:49;8.67;;;6.13;;
2313;SDS011;42279;51.388;7.000;2022-09-14T07:18:15;7.67;;;6.50;;
2313;SDS011;42279;51.388;7.000;2022-09-14T07:20:42;7.67;;;7.00;;
2313;SDS011;42279;51.388;7.000;2022-09-14T07:23:12;7.80;;;7.07;;
2313;SDS011;42279;51.388;7.000;2022-09-14T07:25:41;12.20;;;7.20;;
2313;SDS011;42279;51.388;7.000;2022-09-14T07:28:15;7.27;;;6.87;;
2313;SDS011;42279;51.388;7.000;2022-09-14T07:30:43;10.17;;;6.80;;
2313;SDS011;42279;51.388;7.000;2022-09-14T07:33:09;5.93;;;5.60;;
2313;SDS011;42279;51.388;7.000;2022-09-14T07:35:35;13.10;;;7.50;;
2313;SDS011;42279;51.388;7.000;2022-09-14T07:38:04;8.53;;;6.37;;
2313;SDS011;42279;51.388;7.000;2022-09-14T07:40:30;6.93;;;6.40;;
2313;SDS011;42279;51.388;7.000;2022-09-14T07:42:57;8.30;;;7.40;;
2313;SDS011;42279;51.388;7.000;2022-09-14T07:45:28;7.80;;;7.07;;
2313;SDS011;42279;51.388;7.000;2022-09-14T08:01:37;10.20;;;9.23;;
2313;SDS011;42279;51.388;7.000;2022-09-14T08:04:03;12.00;;;10.70;;
2313;SDS011;42279;51.388;7.000;2022-09-14T08:15:32;11.90;;;9.47;;
2313;SDS011;42279;51.388;7.000;2022-09-14T08:18:16;18.37;;;11.70;;
2313;SDS011;42279;51.388;7.000;2022-09-14T08:20:45;14.83;;;11.10;;
2313;SDS011;42279;51.388;7.000;2022-09-14T08:23:11;13.13;;;11.77;;
2313;SDS011;42279;51.388;7.000;2022-09-14T08:48:24;11.10;;;9.37;;
2313;SDS011;42279;51.388;7.000;2022-09-14T08:51:16;9.07;;;8.30;;
2313;SDS011;42279;51.388;7.000;2022-09-14T08:53:50;8.63;;;7.83;;
2313;SDS011;42279;51.388;7.000;2022-09-14T08:56:35;10.40;;;8.40;;
2313;SDS011;42279;51.388;7.000;2022-09-14T09:11:06;8.33;;;7.07;;
2313;SDS011;42279;51.388;7.000;2022-09-14T09:53:21;6.03;;;5.63;;
2313;SDS011;42279;51.388;7.000;2022-09-14T09:56:25;6.47;;;5.80;;
2313;SDS011;42279;51.388;7.000;2022-09-14T09:58:52;6.60;;;6.00;;
2313;SDS011;42279;51.388;7.000;2022-09-14T10:12:52;7.37;;;4.40;;
2313;SDS011;42279;51.388;7.000;2022-09-14T10:15:23;3.90;;;3.60;;
2313;SDS011;42279;51.388;7.000;2022-09-14T10:23:25;6.50;;;5.07;;
2313;SDS011;42279;51.388;7.000;2022-09-14T10:28:43;4.83;;;4.53;;
2313;SDS011;42279;51.388;7.000;2022-09-14T10:31:21;6.80;;;4.67;;
2313;SDS011;42279;51.388;7.000;2022-09-14T10:33:50;4.60;;;4.30;;
2313;SDS011;42279;51.388;7.000;2022-09-14T10:36:24;5.83;;;4.77;;
2313;SDS011;42279;51.388;7.000;2022-09-14T10:38:52;4.03;;;3.90;;
2313;SDS011;42279;51.388;7.000;2022-09-14T10:41:53;5.40;;;5.00;;
2313;SDS011;42279;51.388;7.000;2022-09-14T10:59:54;4.03;;;3.93;;
2313;SDS011;42279;51.388;7.000;2022-09-14T11:21:49;4.20;;;3.83;;
2313;SDS011;42279;51.388;7.000;2022-09-14T11:29:57;6.97;;;6.37;;
2313;SDS011;42279;51.388;7.000;2022-09-14T11:32:39;6.50;;;5.90;;
2313;SDS011;42279;51.388;7.000;2022-09-14T11:38:02;5.67;;;5.27;;
2313;SDS011;42279;51.388;7.000;2022-09-14T12:09:38;3.50;;;2.93;;
2313;SDS011;42279;51.388;7.000;2022-09-14T12:12:26;3.57;;;3.37;;
2313;SDS011;42279;51.388;7.000;2022-09-14T12:15:14;4.10;;;3.80;;
2313;SDS011;42279;51.388;7.000;2022-09-14T12:31:57;5.80;;;4.23;;
2313;SDS011;42279;51.388;7.000;2022-09-14T12:46:02;5.13;;;4.83;;
2313;SDS011;42279;51.388;7.000;2022-09-14T12:59:51;3.47;;;3.27;;
2313;SDS011;42279;51.388;7.000;2022-09-14T13:02:37;3.70;;;2.97;;
2313;SDS011;42279;51.388;7.000;2022-09-14T13:05:26;3.00;;;2.90;;
2313;SDS011;42279;51.388;7.000;2022-09-14T13:22:29;3.73;;;3.43;;
2313;SDS011;42279;51.388;7.000;2022-09-14T14:05:58;2.00;;;1.90;;
2313;SDS011;42279;51.388;7.000;2022-09-14T14:20:50;1.20;;;1.20;;
2313;SDS011;42279;51.388;7.000;2022-09-14T14:23:19;1.50;;;1.50;;
2313;SDS011;42279;51.388;7.000;2022-09-14T14:25:50;5.13;;;2.00;;
2313;SDS011;42279;51.388;7.000;2022-09-14T14:30:48;2.00;;;1.90;;
2313;SDS011;42279;51.388;7.000;2022-09-14T14:33:27;1.50;;;1.50;;
2313;SDS011;42279;51.388;7.000;2022-09-14T14:35:57;1.50;;;1.50;;
2313;SDS011;42279;51.388;7.000;2022-09-14T14:38:33;1.97;;;1.97;;
2313;SDS011;42279;51.388;7.000;2022-09-14T14:41:09;2.13;;;2.03;;
2313;SDS011;42279;51.388;7.000;2022-09-14T14:43:41;3.40;;;2.50;;
2313;SDS011;42279;51.388;7.000;2022-09-14T14:46:11;2.37;;;2.17;;
2313;SDS011;42279;51.388;7.000;2022-09-14T14:48:41;2.53;;;2.33;;
2313;SDS011;42279;51.388;7.000;2022-09-14T14:51:13;2.53;;;2.53;;
2313;SDS011;42279;51.388;7.000;2022-09-14T14:53:45;2.30;;;1.97;;
2313;SDS011;42279;51.388;7.000;2022-09-14T14:56:13;2.77;;;2.57;;
2313;SDS011;42279;51.388;7.000;2022-09-14T14:58:44;2.43;;;2.23;;
2313;SDS011;42279;51.388;7.000;2022-09-14T15:01:10;4.50;;;4.17;;
2313;SDS011;42279;51.388;7.000;2022-09-14T15:09:09;2.80;;;2.70;;
2313;SDS011;42279;51.388;7.000;2022-09-14T15:12:04;3.63;;;2.93;;
2313;SDS011;42279;51.388;7.000;2022-09-14T15:20:32;3.00;;;2.80;;
2313;SDS011;42279;51.388;7.000;2022-09-14T15:23:05;3.50;;;3.30;;
2313;SDS011;42279;51.388;7.000;2022-09-14T15:25:49;10.47;;;6.93;;
2313;SDS011;42279;51.388;7.000;2022-09-14T15:28:26;3.03;;;2.83;;
2313;SDS011;42279;51.388;7.000;2022-09-14T15:34:07;4.00;;;3.90;;
2313;SDS011;42279;51.388;7.000;2022-09-14T15:37:00;3.23;;;3.13;;
2313;SDS011;42279;51.388;7.000;2022-09-14T15:39:32;3.63;;;3.43;;
2313;SDS011;42279;51.388;7.000;2022-09-14T15:42:19;2.63;;;2.63;;
2313;SDS011;42279;51.388;7.000;2022-09-14T15:44:48;3.50;;;3.30;;
2313;SDS011;42279;51.388;7.000;2022-09-14T15:47:15;3.30;;;3.20;;
2313;SDS011;42279;51.388;7.000;2022-09-14T15:49:47;2.97;;;2.90;;
2313;SDS011;42279;51.388;7.000;2022-09-14T15:52:41;3.50;;;3.30;;
2313;SDS011;42279;51.388;7.000;2022-09-14T15:55:08;4.93;;;2.90;;
2313;SDS011;42279;51.388;7.000;2022-09-14T15:57:35;3.80;;;3.50;;
2313;SDS011;42279;51.388;7.000;2022-09-14T16:00:05;3.30;;;3.17;;
2313;SDS011;42279;51.388;7.000;2022-09-14T16:02:32;3.63;;;3.53;;
2313;SDS011;42279;51.388;7.000;2022-09-14T16:05:03;4.93;;;4.83;;
2313;SDS011;42279;51.388;7.000;2022-09-14T16:07:29;4.23;;;3.83;;
2313;SDS011;42279;51.388;7.000;2022-09-14T16:10:01;3.30;;;3.30;;
2313;SDS011;42279;51.388;7.000;2022-09-14T16:12:53;4.27;;;4.03;;
2313;SDS011;42279;51.388;7.000;2022-09-14T16:15:37;3.43;;;3.23;;
2313;SDS011;42279;51.388;7.000;2022-09-14T16:18:09;4.23;;;3.93;;
2313;SDS011;42279;51.388;7.000;2022-09-14T16:20:50;4.80;;;4.60;;
2313;SDS011;42279;51.388;7.000;2022-09-14T16:23:24;6.00;;;5.57;;
2313;SDS011;42279;51.388;7.000;2022-09-14T16:38:52;6.37;;;5.97;;
2313;SDS011;42279;51.388;7.000;2022-09-14T16:44:02;6.80;;;6.40;;
2313;SDS011;42279;51.388;7.000;2022-09-14T16:54:49;6.80;;;6.40;;
2313;SDS011;42279;51.388;7.000;2022-09-14T17:05:09;11.57;;;10.47;;
2313;SDS011;42279;51.388;7.000;2022-09-14T17:20:40;18.07;;;13.93;;
2313;SDS011;42279;51.388;7.000;2022-09-14T17:23:09;16.43;;;14.70;;
2313;SDS011;42279;51.388;7.000;2022-09-14T17:28:24;22.00;;;15.90;;
2313;SDS011;42279;51.388;7.000;2022-09-14T17:31:07;22.67;;;18.60;;
2313;SDS011;42279;51.388;7.000;2022-09-14T17:33:40;19.33;;;15.53;;
2313;SDS011;42279;51.388;7.000;2022-09-14T17:49:33;17.13;;;15.20;;
2313;SDS011;42279;51.388;7.000;2022-09-14T17:52:18;16.97;;;14.00;;
2313;SDS011;42279;51.388;7.000;2022-09-14T18:17:03;14.07;;;12.80;;
2313;SDS011;42279;51.388;7.000;2022-09-14T18:20:16;19.50;;;13.80;;
2313;SDS011;42279;51.388;7.000;2022-09-14T18:22:52;20.00;;;14.10;;
2313;SDS011;42279;51.388;7.000;2022-09-14T18:31:08;15.13;;;13.53;;
2313;SDS011;42279;51.388;7.000;2022-09-14T18:33:51;19.33;;;14.47;;
2313;SDS011;42279;51.388;7.000;2022-09-14T18:36:23;18.10;;;15.00;;
2313;SDS011;42279;51.388;7.000;2022-09-14T18:38:55;17.83;;;15.07;;
2313;SDS011;42279;51.388;7.000;2022-09-14T18:41:41;17.13;;;14.77;;
2313;SDS011;42279;51.388;7.000;2022-09-14T18:44:53;17.83;;;15.00;;
2313;SDS011;42279;51.388;7.000;2022-09-14T18:47:20;16.53;;;13.77;;
2313;SDS011;42279;51.388;7.000;2022-09-14T18:49:48;16.47;;;14.03;;
2313;SDS011;42279;51.388;7.000;2022-09-14T18:52:22;18.47;;;15.00;;
2313;SDS011;42279;51.388;7.000;2022-09-14T18:54:54;19.90;;;15.10;;
2313;SDS011;42279;51.388;7.000;2022-09-14T19:29:07;17.83;;;14.63;;
2313;SDS011;42279;51.388;7.000;2022-09-14T19:37:31;18.83;;;15.53;;
2313;SDS011;42279;51.388;7.000;2022-09-14T19:43:13;25.60;;;16.60;;
2313;SDS011;42279;51.388;7.000;2022-09-14T19:45:46;20.20;;;15.10;;
2313;SDS011;42279;51.388;7.000;2022-09-14T19:51:40;23.57;;;15.20;;
2313;SDS011;42279;51.388;7.000;2022-09-14T19:57:23;19.00;;;14.00;;
2313;SDS011;42279;51.388;7.000;2022-09-14T20:06:14;25.60;;;14.77;;
2313;SDS011;42279;51.388;7.000;2022-09-14T20:09:11;21.10;;;15.60;;
2313;SDS011;42279;51.388;7.000;2022-09-14T20:11:41;22.20;;;14.63;;
2313;SDS011;42279;51.388;7.000;2022-09-14T23:21:59;17.30;;;13.20;;
2313;SDS011;42279;51.388;7.000;2022-09-14T23:25:06;15.83;;;12.63;;
2313;SDS011;42279;51.388;7.000;2022-09-14T23:27:43;14.97;;;13.40;;
2313;SDS011;42279;51.388;7.000;2022-09-14T23:30:28;14.13;;;12.30;;
2313;SDS011;42279;51.388;7.000;2022-09-14T23:36:22;13.33;;;10.70;;
2313;SDS011;42279;51.388;7.000;2022-09-14T23:38:54;12.60;;;11.30;;
2313;SDS011;42279;51.388;7.000;2022-09-14T23:41:26;11.73;;;10.43;;
2313;SDS011;42279;51.388;7.000;2022-09-14T23:44:08;12.20;;;10.90;;
2313;SDS011;42279;51.388;7.000;2022-09-14T23:46:35;16.10;;;12.97;;
2313;SDS011;42279;51.388;7.000;2022-09-14T23:52:11;19.33;;;13.60;;
2313;SDS011;42279;51.388;7.000;2022-09-14T23:54:53;19.93;;;12.90;;
